sensor_id;sensor_type;location;lat;lon;timestamp;temperature;humidity
24522;DHT22;12680;57.804;12.190;2022-12-07T00:03:48;1.20;99.90
24522;DHT22;12680;57.804;12.190;2022-12-07T00:06:16;1.30;99.90
24522;DHT22;12680;57.804;12.190;2022-12-07T00:08:45;1.40;99.90
24522;DHT22;12680;57.804;12.190;2022-12-07T00:11:15;1.50;99.90
24522;DHT22;12680;57.804;12.190;2022-12-07T00:13:44;1.60;99.90
24522;DHT22;12680;57.804;12.190;2022-12-07T00:16:14;1.60;99.90
24522;DHT22;12680;57.804;12.190;2022-12-07T00:18:44;1.70;99.90
24522;DHT22;12680;57.804;12.190;2022-12-07T00:21:20;1.70;99.90
24522;DHT22;12680;57.804;12.190;2022-12-07T00:23:49;1.60;99.90
24522;DHT22;12680;57.804;12.190;2022-12-07T00:26:19;1.50;99.90
24522;DHT22;12680;57.804;12.190;2022-12-07T00:28:51;1.50;99.90
24522;DHT22;12680;57.804;12.190;2022-12-07T00:31:21;1.40;99.90
24522;DHT22;12680;57.804;12.190;2022-12-07T00:33:49;1.40;99.90
24522;DHT22;12680;57.804;12.190;2022-12-07T00:36:19;1.40;99.90
24522;DHT22;12680;57.804;12.190;2022-12-07T00:38:53;1.30;99.90
24522;DHT22;12680;57.804;12.190;2022-12-07T00:41:23;1.20;99.90
24522;DHT22;12680;57.804;12.190;2022-12-07T00:43:51;1.20;99.90
24522;DHT22;12680;57.804;12.190;2022-12-07T00:46:19;1.30;99.90
24522;DHT22;12680;57.804;12.190;2022-12-07T00:48:47;1.30;99.90
24522;DHT22;12680;57.804;12.190;2022-12-07T00:51:17;1.30;99.90
24522;DHT22;12680;57.804;12.190;2022-12-07T00:53:45;1.30;99.90
24522;DHT22;12680;57.804;12.190;2022-12-07T00:56:14;1.40;99.90
24522;DHT22;12680;57.804;12.190;2022-12-07T00:58:42;1.50;99.90
24522;DHT22;12680;57.804;12.190;2022-12-07T01:01:10;1.60;99.90
24522;DHT22;12680;57.804;12.190;2022-12-07T01:03:37;1.50;99.90
24522;DHT22;12680;57.804;12.190;2022-12-07T01:06:05;1.50;99.90
24522;DHT22;12680;57.804;12.190;2022-12-07T01:08:33;1.40;99.90
24522;DHT22;12680;57.804;12.190;2022-12-07T01:11:02;1.40;99.90
24522;DHT22;12680;57.804;12.190;2022-12-07T01:13:30;1.30;99.90
24522;DHT22;12680;57.804;12.190;2022-12-07T01:15:59;1.40;99.90
24522;DHT22;12680;57.804;12.190;2022-12-07T01:18:28;1.40;99.90
24522;DHT22;12680;57.804;12.190;2022-12-07T01:21:04;1.40;99.90
24522;DHT22;12680;57.804;12.190;2022-12-07T01:23:32;1.40;99.90
24522;DHT22;12680;57.804;12.190;2022-12-07T01:26:03;1.40;99.90
24522;DHT22;12680;57.804;12.190;2022-12-07T01:28:31;1.50;99.90
24522;DHT22;12680;57.804;12.190;2022-12-07T01:31:10;1.40;99.90
24522;DHT22;12680;57.804;12.190;2022-12-07T01:33:39;1.40;99.90
24522;DHT22;12680;57.804;12.190;2022-12-07T01:38:43;1.10;99.90
24522;DHT22;12680;57.804;12.190;2022-12-07T01:41:10;1.10;99.90
24522;DHT22;12680;57.804;12.190;2022-12-07T01:46:34;1.10;99.90
24522;DHT22;12680;57.804;12.190;2022-12-07T01:49:02;1.00;99.90
24522;DHT22;12680;57.804;12.190;2022-12-07T01:51:31;1.00;99.90
24522;DHT22;12680;57.804;12.190;2022-12-07T01:53:58;1.00;99.90
24522;DHT22;12680;57.804;12.190;2022-12-07T01:56:27;0.90;99.90
24522;DHT22;12680;57.804;12.190;2022-12-07T01:58:56;0.90;99.90
24522;DHT22;12680;57.804;12.190;2022-12-07T02:01:24;0.80;99.90
24522;DHT22;12680;57.804;12.190;2022-12-07T02:03:51;0.80;99.90
24522;DHT22;12680;57.804;12.190;2022-12-07T02:06:22;0.80;99.90
24522;DHT22;12680;57.804;12.190;2022-12-07T02:08:50;0.60;99.90
24522;DHT22;12680;57.804;12.190;2022-12-07T02:11:17;0.60;99.90
24522;DHT22;12680;57.804;12.190;2022-12-07T02:13:46;0.60;99.90
24522;DHT22;12680;57.804;12.190;2022-12-07T02:16:20;0.70;99.90
24522;DHT22;12680;57.804;12.190;2022-12-07T02:19:06;0.80;99.90
24522;DHT22;12680;57.804;12.190;2022-12-07T02:21:44;0.90;99.90
24522;DHT22;12680;57.804;12.190;2022-12-07T02:27:33;1.10;99.90
24522;DHT22;12680;57.804;12.190;2022-12-07T02:30:12;1.10;99.90
24522;DHT22;12680;57.804;12.190;2022-12-07T02:32:51;1.20;99.90
24522;DHT22;12680;57.804;12.190;2022-12-07T02:35:24;1.20;99.90
24522;DHT22;12680;57.804;12.190;2022-12-07T02:45:51;1.40;99.90
24522;DHT22;12680;57.804;12.190;2022-12-07T02:48:20;1.40;99.90
24522;DHT22;12680;57.804;12.190;2022-12-07T02:50:52;1.40;99.90
24522;DHT22;12680;57.804;12.190;2022-12-07T02:53:48;1.40;99.90
24522;DHT22;12680;57.804;12.190;2022-12-07T02:56:39;1.30;99.90
24522;DHT22;12680;57.804;12.190;2022-12-07T03:02:25;1.10;99.90
24522;DHT22;12680;57.804;12.190;2022-12-07T03:10:56;1.00;99.90
24522;DHT22;12680;57.804;12.190;2022-12-07T03:18:50;0.90;99.90
24522;DHT22;12680;57.804;12.190;2022-12-07T03:21:25;1.00;99.90
24522;DHT22;12680;57.804;12.190;2022-12-07T03:23:56;1.00;99.90
24522;DHT22;12680;57.804;12.190;2022-12-07T03:26:30;1.10;99.90
24522;DHT22;12680;57.804;12.190;2022-12-07T03:29:02;1.10;99.90
24522;DHT22;12680;57.804;12.190;2022-12-07T03:31:34;1.10;99.90
24522;DHT22;12680;57.804;12.190;2022-12-07T03:34:11;1.10;99.90
24522;DHT22;12680;57.804;12.190;2022-12-07T03:39:49;1.00;99.90
24522;DHT22;12680;57.804;12.190;2022-12-07T03:42:09;1.00;99.90
24522;DHT22;12680;57.804;12.190;2022-12-07T03:44:37;1.00;99.90
24522;DHT22;12680;57.804;12.190;2022-12-07T03:47:15;1.00;99.90
24522;DHT22;12680;57.804;12.190;2022-12-07T03:52:58;0.90;99.90
24522;DHT22;12680;57.804;12.190;2022-12-07T03:55:30;0.80;99.90
24522;DHT22;12680;57.804;12.190;2022-12-07T03:58:00;0.80;99.90
24522;DHT22;12680;57.804;12.190;2022-12-07T04:00:29;0.80;99.90
24522;DHT22;12680;57.804;12.190;2022-12-07T04:02:56;0.80;99.90
24522;DHT22;12680;57.804;12.190;2022-12-07T04:05:24;0.80;99.90
24522;DHT22;12680;57.804;12.190;2022-12-07T04:07:51;0.80;99.90
24522;DHT22;12680;57.804;12.190;2022-12-07T04:10:18;0.80;99.90
24522;DHT22;12680;57.804;12.190;2022-12-07T04:12:46;0.80;99.90
24522;DHT22;12680;57.804;12.190;2022-12-07T04:15:13;0.70;99.90
24522;DHT22;12680;57.804;12.190;2022-12-07T04:17:40;0.80;99.90
24522;DHT22;12680;57.804;12.190;2022-12-07T04:20:08;0.80;99.90
24522;DHT22;12680;57.804;12.190;2022-12-07T04:22:35;0.80;99.90
24522;DHT22;12680;57.804;12.190;2022-12-07T04:25:02;0.80;99.90
24522;DHT22;12680;57.804;12.190;2022-12-07T04:27:29;0.90;99.90
24522;DHT22;12680;57.804;12.190;2022-12-07T04:29:56;0.80;99.90
24522;DHT22;12680;57.804;12.190;2022-12-07T04:32:24;0.80;99.90
24522;DHT22;12680;57.804;12.190;2022-12-07T04:34:51;0.90;99.90
24522;DHT22;12680;57.804;12.190;2022-12-07T04:37:22;0.90;99.90
24522;DHT22;12680;57.804;12.190;2022-12-07T04:39:49;0.90;99.90
24522;DHT22;12680;57.804;12.190;2022-12-07T04:42:16;1.00;99.90
24522;DHT22;12680;57.804;12.190;2022-12-07T04:44:44;1.00;99.90
24522;DHT22;12680;57.804;12.190;2022-12-07T04:47:11;1.00;99.90
24522;DHT22;12680;57.804;12.190;2022-12-07T04:49:38;1.10;99.90
24522;DHT22;12680;57.804;12.190;2022-12-07T04:52:05;1.10;99.90
24522;DHT22;12680;57.804;12.190;2022-12-07T04:54:33;1.10;99.90
24522;DHT22;12680;57.804;12.190;2022-12-07T04:57:00;1.10;99.90
24522;DHT22;12680;57.804;12.190;2022-12-07T04:59:27;1.10;99.90
24522;DHT22;12680;57.804;12.190;2022-12-07T05:01:54;1.10;99.90
24522;DHT22;12680;57.804;12.190;2022-12-07T05:04:21;1.20;99.90
24522;DHT22;12680;57.804;12.190;2022-12-07T05:06:48;1.20;99.90
24522;DHT22;12680;57.804;12.190;2022-12-07T05:09:15;1.20;99.90
24522;DHT22;12680;57.804;12.190;2022-12-07T05:11:42;1.20;99.90
24522;DHT22;12680;57.804;12.190;2022-12-07T05:14:19;1.30;99.90
24522;DHT22;12680;57.804;12.190;2022-12-07T05:16:49;1.30;99.90
24522;DHT22;12680;57.804;12.190;2022-12-07T05:19:18;1.30;99.90
24522;DHT22;12680;57.804;12.190;2022-12-07T05:21:46;1.30;99.90
24522;DHT22;12680;57.804;12.190;2022-12-07T05:24:15;1.30;99.90
24522;DHT22;12680;57.804;12.190;2022-12-07T05:26:43;1.40;99.90
24522;DHT22;12680;57.804;12.190;2022-12-07T05:29:15;1.40;99.90
24522;DHT22;12680;57.804;12.190;2022-12-07T05:31:43;1.30;99.90
24522;DHT22;12680;57.804;12.190;2022-12-07T05:34:10;1.30;99.90
24522;DHT22;12680;57.804;12.190;2022-12-07T05:36:38;1.30;99.90
24522;DHT22;12680;57.804;12.190;2022-12-07T05:39:05;1.30;99.90
24522;DHT22;12680;57.804;12.190;2022-12-07T05:41:33;1.40;99.90
24522;DHT22;12680;57.804;12.190;2022-12-07T05:44:18;1.40;99.90
24522;DHT22;12680;57.804;12.190;2022-12-07T05:46:45;1.40;99.90
24522;DHT22;12680;57.804;12.190;2022-12-07T05:49:12;1.40;99.90
24522;DHT22;12680;57.804;12.190;2022-12-07T05:51:39;1.40;99.90
24522;DHT22;12680;57.804;12.190;2022-12-07T05:54:07;1.30;99.90
24522;DHT22;12680;57.804;12.190;2022-12-07T05:56:34;1.30;99.90
24522;DHT22;12680;57.804;12.190;2022-12-07T05:59:01;1.30;99.90
24522;DHT22;12680;57.804;12.190;2022-12-07T06:01:47;1.30;99.90
24522;DHT22;12680;57.804;12.190;2022-12-07T06:04:14;1.20;99.90
24522;DHT22;12680;57.804;12.190;2022-12-07T06:06:41;1.20;99.90
24522;DHT22;12680;57.804;12.190;2022-12-07T06:09:09;1.20;99.90
24522;DHT22;12680;57.804;12.190;2022-12-07T06:11:36;1.20;99.90
24522;DHT22;12680;57.804;12.190;2022-12-07T06:14:21;1.20;99.90
24522;DHT22;12680;57.804;12.190;2022-12-07T06:16:49;1.20;99.90
24522;DHT22;12680;57.804;12.190;2022-12-07T06:19:16;1.30;99.90
24522;DHT22;12680;57.804;12.190;2022-12-07T06:21:43;1.40;99.90
24522;DHT22;12680;57.804;12.190;2022-12-07T06:24:12;1.40;99.90
24522;DHT22;12680;57.804;12.190;2022-12-07T06:26:40;1.30;99.90
24522;DHT22;12680;57.804;12.190;2022-12-07T06:29:07;1.40;99.90
24522;DHT22;12680;57.804;12.190;2022-12-07T06:31:36;1.40;99.90
24522;DHT22;12680;57.804;12.190;2022-12-07T06:34:05;1.50;99.90
24522;DHT22;12680;57.804;12.190;2022-12-07T06:36:33;1.60;99.90
24522;DHT22;12680;57.804;12.190;2022-12-07T06:39:00;1.60;99.90
24522;DHT22;12680;57.804;12.190;2022-12-07T06:41:27;1.70;99.90
24522;DHT22;12680;57.804;12.190;2022-12-07T06:43:54;1.70;99.90
24522;DHT22;12680;57.804;12.190;2022-12-07T06:46:22;1.70;99.90
24522;DHT22;12680;57.804;12.190;2022-12-07T06:48:50;1.80;99.90
24522;DHT22;12680;57.804;12.190;2022-12-07T06:51:17;1.80;99.90
24522;DHT22;12680;57.804;12.190;2022-12-07T06:53:44;1.80;99.90
24522;DHT22;12680;57.804;12.190;2022-12-07T06:56:11;1.80;99.90
24522;DHT22;12680;57.804;12.190;2022-12-07T06:58:39;1.80;99.90
24522;DHT22;12680;57.804;12.190;2022-12-07T07:01:12;1.80;99.90
24522;DHT22;12680;57.804;12.190;2022-12-07T07:03:40;1.70;99.90
24522;DHT22;12680;57.804;12.190;2022-12-07T07:06:08;1.70;99.90
24522;DHT22;12680;57.804;12.190;2022-12-07T07:08:36;1.70;99.90
24522;DHT22;12680;57.804;12.190;2022-12-07T07:11:03;1.70;99.90
24522;DHT22;12680;57.804;12.190;2022-12-07T07:13:31;1.70;99.90
24522;DHT22;12680;57.804;12.190;2022-12-07T07:15:58;1.60;99.90
24522;DHT22;12680;57.804;12.190;2022-12-07T07:18:26;1.70;99.90
24522;DHT22;12680;57.804;12.190;2022-12-07T07:20:53;1.60;99.90
24522;DHT22;12680;57.804;12.190;2022-12-07T07:23:21;1.60;99.90
24522;DHT22;12680;57.804;12.190;2022-12-07T07:25:48;1.70;99.90
24522;DHT22;12680;57.804;12.190;2022-12-07T07:28:16;1.70;99.90
24522;DHT22;12680;57.804;12.190;2022-12-07T07:30:43;1.60;99.90
24522;DHT22;12680;57.804;12.190;2022-12-07T07:33:11;1.60;99.90
24522;DHT22;12680;57.804;12.190;2022-12-07T07:35:38;1.70;99.90
24522;DHT22;12680;57.804;12.190;2022-12-07T07:38:06;1.60;99.90
24522;DHT22;12680;57.804;12.190;2022-12-07T07:40:34;1.60;99.90
24522;DHT22;12680;57.804;12.190;2022-12-07T07:43:01;1.60;99.90
24522;DHT22;12680;57.804;12.190;2022-12-07T07:45:29;1.60;99.90
24522;DHT22;12680;57.804;12.190;2022-12-07T07:47:56;1.50;99.90
24522;DHT22;12680;57.804;12.190;2022-12-07T07:50:23;1.50;99.90
24522;DHT22;12680;57.804;12.190;2022-12-07T07:52:51;1.50;99.90
24522;DHT22;12680;57.804;12.190;2022-12-07T07:55:18;1.50;99.90
24522;DHT22;12680;57.804;12.190;2022-12-07T07:57:46;1.50;99.90
24522;DHT22;12680;57.804;12.190;2022-12-07T08:00:20;1.40;99.90
24522;DHT22;12680;57.804;12.190;2022-12-07T08:02:48;1.40;99.90
24522;DHT22;12680;57.804;12.190;2022-12-07T08:05:15;1.30;99.90
24522;DHT22;12680;57.804;12.190;2022-12-07T08:07:43;1.30;99.90
24522;DHT22;12680;57.804;12.190;2022-12-07T08:10:12;1.40;99.90
24522;DHT22;12680;57.804;12.190;2022-12-07T08:12:42;1.50;99.90
24522;DHT22;12680;57.804;12.190;2022-12-07T08:15:37;1.50;99.90
24522;DHT22;12680;57.804;12.190;2022-12-07T08:18:05;1.50;99.90
24522;DHT22;12680;57.804;12.190;2022-12-07T08:20:33;1.50;99.90
24522;DHT22;12680;57.804;12.190;2022-12-07T08:23:01;1.60;99.90
24522;DHT22;12680;57.804;12.190;2022-12-07T08:25:28;1.60;99.90
24522;DHT22;12680;57.804;12.190;2022-12-07T08:27:55;1.50;99.90
24522;DHT22;12680;57.804;12.190;2022-12-07T08:30:23;1.50;99.90
24522;DHT22;12680;57.804;12.190;2022-12-07T08:32:50;1.40;99.90
24522;DHT22;12680;57.804;12.190;2022-12-07T08:35:18;1.30;99.90
24522;DHT22;12680;57.804;12.190;2022-12-07T08:37:45;1.20;99.90
24522;DHT22;12680;57.804;12.190;2022-12-07T08:40:13;1.00;99.90
24522;DHT22;12680;57.804;12.190;2022-12-07T08:42:42;1.00;99.90
24522;DHT22;12680;57.804;12.190;2022-12-07T08:45:13;0.90;99.90
24522;DHT22;12680;57.804;12.190;2022-12-07T08:48:10;0.80;99.90
24522;DHT22;12680;57.804;12.190;2022-12-07T08:50:40;0.80;99.90
24522;DHT22;12680;57.804;12.190;2022-12-07T08:53:15;0.80;99.90
24522;DHT22;12680;57.804;12.190;2022-12-07T08:55:46;0.80;99.90
24522;DHT22;12680;57.804;12.190;2022-12-07T08:58:13;0.70;99.90
24522;DHT22;12680;57.804;12.190;2022-12-07T09:00:41;0.80;99.90
24522;DHT22;12680;57.804;12.190;2022-12-07T09:03:08;0.70;99.90
24522;DHT22;12680;57.804;12.190;2022-12-07T09:05:35;0.70;99.90
24522;DHT22;12680;57.804;12.190;2022-12-07T09:08:02;0.70;99.90
24522;DHT22;12680;57.804;12.190;2022-12-07T09:10:30;0.70;99.90
24522;DHT22;12680;57.804;12.190;2022-12-07T09:12:57;0.70;99.90
24522;DHT22;12680;57.804;12.190;2022-12-07T09:15:28;0.80;99.90
24522;DHT22;12680;57.804;12.190;2022-12-07T09:17:55;0.90;99.90
24522;DHT22;12680;57.804;12.190;2022-12-07T09:20:23;1.00;99.90
24522;DHT22;12680;57.804;12.190;2022-12-07T09:22:53;1.10;99.90
24522;DHT22;12680;57.804;12.190;2022-12-07T09:25:21;1.20;99.90
24522;DHT22;12680;57.804;12.190;2022-12-07T09:27:48;1.30;99.90
24522;DHT22;12680;57.804;12.190;2022-12-07T09:30:15;1.20;99.90
24522;DHT22;12680;57.804;12.190;2022-12-07T09:32:42;1.20;99.90
24522;DHT22;12680;57.804;12.190;2022-12-07T09:35:09;1.20;99.90
24522;DHT22;12680;57.804;12.190;2022-12-07T09:37:36;1.20;99.90
24522;DHT22;12680;57.804;12.190;2022-12-07T09:40:04;1.20;99.90
24522;DHT22;12680;57.804;12.190;2022-12-07T09:42:38;1.30;99.90
24522;DHT22;12680;57.804;12.190;2022-12-07T09:45:21;1.40;99.90
24522;DHT22;12680;57.804;12.190;2022-12-07T09:47:48;1.50;99.90
24522;DHT22;12680;57.804;12.190;2022-12-07T09:50:20;1.50;99.90
24522;DHT22;12680;57.804;12.190;2022-12-07T09:52:49;1.60;99.90
24522;DHT22;12680;57.804;12.190;2022-12-07T09:55:23;1.70;99.90
24522;DHT22;12680;57.804;12.190;2022-12-07T09:57:52;1.70;99.90
24522;DHT22;12680;57.804;12.190;2022-12-07T10:00:22;1.70;99.90
24522;DHT22;12680;57.804;12.190;2022-12-07T10:03:00;1.70;99.90
24522;DHT22;12680;57.804;12.190;2022-12-07T10:05:36;1.80;99.90
24522;DHT22;12680;57.804;12.190;2022-12-07T10:08:07;1.90;99.90
24522;DHT22;12680;57.804;12.190;2022-12-07T10:10:35;1.90;99.90
24522;DHT22;12680;57.804;12.190;2022-12-07T10:13:06;2.10;99.90
24522;DHT22;12680;57.804;12.190;2022-12-07T10:15:41;2.30;99.90
24522;DHT22;12680;57.804;12.190;2022-12-07T10:18:27;2.30;99.90
24522;DHT22;12680;57.804;12.190;2022-12-07T10:21:05;2.30;99.90
24522;DHT22;12680;57.804;12.190;2022-12-07T10:23:35;2.30;99.90
24522;DHT22;12680;57.804;12.190;2022-12-07T10:26:30;2.30;99.90
24522;DHT22;12680;57.804;12.190;2022-12-07T10:31:39;2.20;99.90
24522;DHT22;12680;57.804;12.190;2022-12-07T10:34:21;2.20;99.90
24522;DHT22;12680;57.804;12.190;2022-12-07T10:36:52;2.20;99.90
24522;DHT22;12680;57.804;12.190;2022-12-07T10:39:23;2.20;99.90
24522;DHT22;12680;57.804;12.190;2022-12-07T10:44:28;2.00;99.90
24522;DHT22;12680;57.804;12.190;2022-12-07T11:03:46;1.60;99.90
24522;DHT22;12680;57.804;12.190;2022-12-07T11:09:43;1.40;99.90
24522;DHT22;12680;57.804;12.190;2022-12-07T11:13:15;1.40;99.90
24522;DHT22;12680;57.804;12.190;2022-12-07T11:21:24;1.00;99.90
24522;DHT22;12680;57.804;12.190;2022-12-07T11:24:18;1.00;99.90
24522;DHT22;12680;57.804;12.190;2022-12-07T11:32:22;0.70;99.90
24522;DHT22;12680;57.804;12.190;2022-12-07T11:37:34;0.70;99.90
24522;DHT22;12680;57.804;12.190;2022-12-07T11:40:33;0.70;99.90
24522;DHT22;12680;57.804;12.190;2022-12-07T11:46:02;0.70;99.90
24522;DHT22;12680;57.804;12.190;2022-12-07T11:51:40;0.50;99.90
24522;DHT22;12680;57.804;12.190;2022-12-07T11:54:19;0.40;99.90
24522;DHT22;12680;57.804;12.190;2022-12-07T11:56:50;0.40;99.90
24522;DHT22;12680;57.804;12.190;2022-12-07T11:59:33;0.40;99.90
24522;DHT22;12680;57.804;12.190;2022-12-07T12:02:15;0.40;99.90
24522;DHT22;12680;57.804;12.190;2022-12-07T12:04:58;0.30;99.90
24522;DHT22;12680;57.804;12.190;2022-12-07T12:07:29;0.20;99.90
24522;DHT22;12680;57.804;12.190;2022-12-07T12:11:36;0.20;99.90
24522;DHT22;12680;57.804;12.190;2022-12-07T12:19:46;0.10;99.90
24522;DHT22;12680;57.804;12.190;2022-12-07T12:22:38;0.20;99.90
24522;DHT22;12680;57.804;12.190;2022-12-07T12:27:49;0.10;99.90
24522;DHT22;12680;57.804;12.190;2022-12-07T12:30:37;0.10;99.90
24522;DHT22;12680;57.804;12.190;2022-12-07T12:33:26;0.10;99.90
24522;DHT22;12680;57.804;12.190;2022-12-07T13:02:36;-0.10;99.90
24522;DHT22;12680;57.804;12.190;2022-12-07T13:15:52;-0.20;99.90
24522;DHT22;12680;57.804;12.190;2022-12-07T13:23:54;-0.20;99.90
24522;DHT22;12680;57.804;12.190;2022-12-07T13:26:36;-0.20;99.90
24522;DHT22;12680;57.804;12.190;2022-12-07T13:29:11;-0.30;99.90
24522;DHT22;12680;57.804;12.190;2022-12-07T13:31:52;-0.20;99.90
24522;DHT22;12680;57.804;12.190;2022-12-07T13:39:51;-0.10;99.90
24522;DHT22;12680;57.804;12.190;2022-12-07T13:42:28;-0.20;99.90
24522;DHT22;12680;57.804;12.190;2022-12-07T13:44:57;-0.20;99.90
24522;DHT22;12680;57.804;12.190;2022-12-07T13:47:41;-0.30;99.90
24522;DHT22;12680;57.804;12.190;2022-12-07T13:50:26;-0.30;99.90
24522;DHT22;12680;57.804;12.190;2022-12-07T13:52:58;-0.20;99.90
24522;DHT22;12680;57.804;12.190;2022-12-07T13:55:27;-0.30;99.90
24522;DHT22;12680;57.804;12.190;2022-12-07T13:57:55;-0.40;99.90
24522;DHT22;12680;57.804;12.190;2022-12-07T14:00:25;-0.40;99.90
24522;DHT22;12680;57.804;12.190;2022-12-07T14:02:59;-0.50;99.90
24522;DHT22;12680;57.804;12.190;2022-12-07T14:05:32;-0.50;99.90
24522;DHT22;12680;57.804;12.190;2022-12-07T14:13:38;-0.50;99.90
24522;DHT22;12680;57.804;12.190;2022-12-07T14:18:51;-0.70;99.90
24522;DHT22;12680;57.804;12.190;2022-12-07T14:21:21;-0.80;99.90
24522;DHT22;12680;57.804;12.190;2022-12-07T14:26:39;-0.90;99.90
24522;DHT22;12680;57.804;12.190;2022-12-07T14:29:30;-0.90;99.90
24522;DHT22;12680;57.804;12.190;2022-12-07T14:34:27;-1.00;99.90
24522;DHT22;12680;57.804;12.190;2022-12-07T14:36:54;-1.00;99.90
24522;DHT22;12680;57.804;12.190;2022-12-07T14:39:21;-1.20;99.90
24522;DHT22;12680;57.804;12.190;2022-12-07T14:41:49;-1.20;99.90
24522;DHT22;12680;57.804;12.190;2022-12-07T14:44:20;-1.30;99.90
24522;DHT22;12680;57.804;12.190;2022-12-07T14:46:52;-1.30;99.90
24522;DHT22;12680;57.804;12.190;2022-12-07T14:49:40;-1.30;99.90
24522;DHT22;12680;57.804;12.190;2022-12-07T14:52:16;-1.20;99.90
24522;DHT22;12680;57.804;12.190;2022-12-07T14:55:04;-1.20;99.90
24522;DHT22;12680;57.804;12.190;2022-12-07T14:57:32;-1.20;99.90
24522;DHT22;12680;57.804;12.190;2022-12-07T14:59:59;-1.20;99.90
24522;DHT22;12680;57.804;12.190;2022-12-07T15:02:26;-1.20;99.90
24522;DHT22;12680;57.804;12.190;2022-12-07T15:04:53;-1.20;99.90
24522;DHT22;12680;57.804;12.190;2022-12-07T15:07:21;-1.20;99.90
24522;DHT22;12680;57.804;12.190;2022-12-07T15:09:48;-1.30;99.90
24522;DHT22;12680;57.804;12.190;2022-12-07T15:12:16;-1.30;99.90
24522;DHT22;12680;57.804;12.190;2022-12-07T15:14:43;-1.40;99.90
24522;DHT22;12680;57.804;12.190;2022-12-07T15:17:11;-1.50;99.90
24522;DHT22;12680;57.804;12.190;2022-12-07T15:19:55;-1.50;99.90
24522;DHT22;12680;57.804;12.190;2022-12-07T15:22:22;-1.60;99.90
24522;DHT22;12680;57.804;12.190;2022-12-07T15:24:49;-1.70;99.90
24522;DHT22;12680;57.804;12.190;2022-12-07T15:27:16;-1.70;99.90
24522;DHT22;12680;57.804;12.190;2022-12-07T15:29:43;-1.80;99.90
24522;DHT22;12680;57.804;12.190;2022-12-07T15:32:11;-1.90;99.90
24522;DHT22;12680;57.804;12.190;2022-12-07T15:34:38;-1.90;99.90
24522;DHT22;12680;57.804;12.190;2022-12-07T15:37:07;-1.90;99.90
24522;DHT22;12680;57.804;12.190;2022-12-07T15:39:36;-1.90;99.90
24522;DHT22;12680;57.804;12.190;2022-12-07T15:42:03;-2.00;99.90
24522;DHT22;12680;57.804;12.190;2022-12-07T15:44:30;-2.00;99.90
24522;DHT22;12680;57.804;12.190;2022-12-07T15:47:16;-2.00;99.90
24522;DHT22;12680;57.804;12.190;2022-12-07T15:49:43;-1.90;99.90
24522;DHT22;12680;57.804;12.190;2022-12-07T15:52:10;-1.90;99.90
24522;DHT22;12680;57.804;12.190;2022-12-07T15:54:38;-2.00;99.90
24522;DHT22;12680;57.804;12.190;2022-12-07T15:57:05;-2.10;99.90
24522;DHT22;12680;57.804;12.190;2022-12-07T15:59:32;-2.10;99.90
24522;DHT22;12680;57.804;12.190;2022-12-07T16:02:00;-2.20;99.90
24522;DHT22;12680;57.804;12.190;2022-12-07T16:04:28;-2.10;99.90
24522;DHT22;12680;57.804;12.190;2022-12-07T16:06:56;-2.10;99.90
24522;DHT22;12680;57.804;12.190;2022-12-07T16:09:23;-2.10;99.90
24522;DHT22;12680;57.804;12.190;2022-12-07T16:11:51;-2.10;99.90
24522;DHT22;12680;57.804;12.190;2022-12-07T16:14:19;-2.10;99.90
24522;DHT22;12680;57.804;12.190;2022-12-07T16:16:47;-2.10;99.90
24522;DHT22;12680;57.804;12.190;2022-12-07T16:19:14;-2.10;99.90
24522;DHT22;12680;57.804;12.190;2022-12-07T16:21:41;-2.10;99.90
24522;DHT22;12680;57.804;12.190;2022-12-07T16:24:09;-2.20;99.90
24522;DHT22;12680;57.804;12.190;2022-12-07T16:26:36;-2.10;99.90
24522;DHT22;12680;57.804;12.190;2022-12-07T16:29:03;-2.20;99.90
24522;DHT22;12680;57.804;12.190;2022-12-07T16:31:31;-2.30;99.90
24522;DHT22;12680;57.804;12.190;2022-12-07T16:33:59;-2.30;99.90
24522;DHT22;12680;57.804;12.190;2022-12-07T16:36:26;-2.20;99.90
24522;DHT22;12680;57.804;12.190;2022-12-07T16:39:14;-2.20;99.90
24522;DHT22;12680;57.804;12.190;2022-12-07T16:41:41;-2.20;99.90
24522;DHT22;12680;57.804;12.190;2022-12-07T16:44:11;-2.20;99.90
24522;DHT22;12680;57.804;12.190;2022-12-07T16:46:39;-2.30;99.90
24522;DHT22;12680;57.804;12.190;2022-12-07T16:49:13;-2.30;99.90
24522;DHT22;12680;57.804;12.190;2022-12-07T16:51:41;-2.30;99.90
24522;DHT22;12680;57.804;12.190;2022-12-07T16:54:11;-2.30;99.90
24522;DHT22;12680;57.804;12.190;2022-12-07T16:56:38;-2.30;99.90
24522;DHT22;12680;57.804;12.190;2022-12-07T16:59:06;-2.30;99.90
24522;DHT22;12680;57.804;12.190;2022-12-07T17:01:33;-2.40;99.90
24522;DHT22;12680;57.804;12.190;2022-12-07T17:04:01;-2.40;99.90
24522;DHT22;12680;57.804;12.190;2022-12-07T17:06:29;-2.30;99.90
24522;DHT22;12680;57.804;12.190;2022-12-07T17:08:58;-2.30;99.90
24522;DHT22;12680;57.804;12.190;2022-12-07T17:11:29;-2.30;99.90
24522;DHT22;12680;57.804;12.190;2022-12-07T17:13:59;-2.20;99.90
24522;DHT22;12680;57.804;12.190;2022-12-07T17:16:45;-2.20;99.90
24522;DHT22;12680;57.804;12.190;2022-12-07T17:19:15;-2.20;99.90
24522;DHT22;12680;57.804;12.190;2022-12-07T17:21:43;-2.30;99.90
24522;DHT22;12680;57.804;12.190;2022-12-07T17:24:12;-2.40;99.90
24522;DHT22;12680;57.804;12.190;2022-12-07T17:26:40;-2.40;99.90
24522;DHT22;12680;57.804;12.190;2022-12-07T17:29:11;-2.50;99.90
24522;DHT22;12680;57.804;12.190;2022-12-07T17:31:39;-2.50;99.90
24522;DHT22;12680;57.804;12.190;2022-12-07T17:34:12;-2.50;99.90
24522;DHT22;12680;57.804;12.190;2022-12-07T17:36:39;-2.50;99.90
24522;DHT22;12680;57.804;12.190;2022-12-07T17:39:12;-2.50;99.90
24522;DHT22;12680;57.804;12.190;2022-12-07T17:41:40;-2.50;99.90
24522;DHT22;12680;57.804;12.190;2022-12-07T17:44:27;-2.40;99.90
24522;DHT22;12680;57.804;12.190;2022-12-07T17:46:55;-2.50;99.90
24522;DHT22;12680;57.804;12.190;2022-12-07T17:49:25;-2.60;99.90
24522;DHT22;12680;57.804;12.190;2022-12-07T17:51:53;-2.60;99.90
24522;DHT22;12680;57.804;12.190;2022-12-07T17:54:39;-2.60;99.90
24522;DHT22;12680;57.804;12.190;2022-12-07T17:57:06;-2.60;99.90
24522;DHT22;12680;57.804;12.190;2022-12-07T17:59:33;-2.50;99.90
24522;DHT22;12680;57.804;12.190;2022-12-07T18:02:01;-2.50;99.90
24522;DHT22;12680;57.804;12.190;2022-12-07T18:04:28;-2.50;99.90
24522;DHT22;12680;57.804;12.190;2022-12-07T18:06:55;-2.60;99.90
24522;DHT22;12680;57.804;12.190;2022-12-07T18:09:22;-2.70;99.90
24522;DHT22;12680;57.804;12.190;2022-12-07T18:11:49;-2.60;99.90
24522;DHT22;12680;57.804;12.190;2022-12-07T18:14:17;-2.60;99.90
24522;DHT22;12680;57.804;12.190;2022-12-07T18:16:44;-2.60;99.90
24522;DHT22;12680;57.804;12.190;2022-12-07T18:19:12;-2.60;99.90
24522;DHT22;12680;57.804;12.190;2022-12-07T18:21:40;-2.70;99.90
24522;DHT22;12680;57.804;12.190;2022-12-07T18:24:10;-2.80;99.90
24522;DHT22;12680;57.804;12.190;2022-12-07T18:26:38;-2.80;99.90